Time;durP1;ratioP1;P1;durP2;ratioP2;P2;SDS_P1;SDS_P2;PMS_P1;PMS_P2;Temp;Humidity;BMP_temperature;BMP_pressure;BME280_temperature;BME280_humidity;BME280_pressure;Samples;Min_cycle;Max_cycle;Signal;HPM_P1;HPM_P2
2022/12/05 00:00:17;;;;;;;14.65;11.18;;;;;;;20.78;59.79;98710.50;2069511;28;20405;-46
2022/12/05 00:01:20;;;;;;;12.18;9.65;;;;;;;20.77;59.61;98706.16;2069811;28;20528;-49
2022/12/05 00:02:22;;;;;;;15.77;11.70;;;;;;;20.77;59.75;98699.94;2067724;28;20073;-49
2022/12/05 00:03:23;;;;;;;13.77;10.13;;;;;;;20.76;59.82;98701.81;2069429;28;20510;-51
2022/12/05 00:04:24;;;;;;;13.82;10.40;;;;;;;20.73;59.55;98708.47;2070268;28;20037;-48
2022/12/05 00:05:25;;;;;;;12.95;10.00;;;;;;;20.73;59.58;98704.94;2071504;28;20038;-50
2022/12/05 00:06:28;;;;;;;;;;;;;;;20.57;60.06;98706.25;2069060;28;20075;-50
2022/12/05 00:07:29;;;;;;;11.35;9.30;;;;;;;20.60;59.79;98708.53;2069191;28;19929;-50
2022/12/05 00:08:30;;;;;;;;;;;;;;;20.50;60.26;98710.81;2069314;28;20049;-48
2022/12/05 00:09:31;;;;;;;13.02;10.32;;;;;;;20.56;60.22;98712.72;2066372;28;19921;-50
2022/12/05 00:10:36;;;;;;;15.82;11.00;;;;;;;20.61;60.07;98707.47;2063080;28;20064;-50
2022/12/05 00:11:41;;;;;;;14.30;10.70;;;;;;;20.62;59.99;98719.94;2070701;28;20054;-50
2022/12/05 00:12:43;;;;;;;12.38;9.50;;;;;;;20.64;59.94;98707.03;2069632;28;20089;-51
2022/12/05 00:13:44;;;;;;;12.88;10.43;;;;;;;20.65;59.91;98707.88;2069184;28;20498;-47
2022/12/05 00:14:46;;;;;;;15.38;11.77;;;;;;;20.65;59.76;98711.41;2073027;28;20049;-45
2022/12/05 00:15:47;;;;;;;12.95;9.40;;;;;;;20.66;59.84;98710.34;2069323;28;20053;-51
2022/12/05 00:16:48;;;;;;;;;;;;;;;20.51;60.25;98710.59;2070454;28;20077;-50
2022/12/05 00:17:49;;;;;;;15.73;10.32;;;;;;;20.53;60.27;98705.88;2068101;28;19979;-49
2022/12/05 00:18:52;;;;;;;11.55;8.85;;;;;;;20.57;59.94;98700.88;2069717;28;20144;-47
2022/12/05 00:19:53;;;;;;;15.52;10.73;;;;;;;20.59;59.55;98701.50;2069326;28;20434;-46
2022/12/05 00:20:54;;;;;;;;;;;;;;;20.45;60.35;98710.66;2069844;28;20049;-47
2022/12/05 00:21:56;;;;;;;16.48;10.85;;;;;;;20.49;60.14;98712.69;2070652;28;20290;-46
2022/12/05 00:22:58;;;;;;;14.52;9.73;;;;;;;20.52;59.91;98714.94;2068770;28;20058;-45
2022/12/05 00:24:00;;;;;;;11.82;9.00;;;;;;;20.56;59.63;98717.25;2067389;28;20398;-47
2022/12/05 00:25:02;;;;;;;12.57;9.60;;;;;;;20.57;59.75;98710.84;2066038;28;20055;-45
2022/12/05 00:26:03;;;;;;;15.27;10.13;;;;;;;20.55;59.98;98719.13;2068704;28;20045;-46
2022/12/05 00:27:06;;;;;;;12.50;9.38;;;;;;;20.56;59.63;98717.25;2065507;28;20060;-48
2022/12/05 00:28:07;;;;;;;13.00;9.93;;;;;;;20.53;59.53;98716.66;2067566;28;20057;-46
2022/12/05 00:29:09;;;;;;;11.93;9.10;;;;;;;20.55;59.78;98724.50;2071777;28;20053;-47
2022/12/05 00:30:10;;;;;;;14.18;10.07;;;;;;;20.53;59.87;98727.44;2068018;28;20062;-47
2022/12/05 00:31:15;;;;;;;13.00;9.13;;;;;;;20.55;59.38;98731.75;2071206;28;20057;-49
2022/12/05 00:32:15;;;;;;;13.10;10.52;;;;;;;20.52;59.70;98736.50;2070256;28;20049;-46
2022/12/05 00:33:17;;;;;;;13.65;10.43;;;;;;;20.52;59.39;98735.69;2068557;28;20391;-47
2022/12/05 00:34:19;;;;;;;13.77;9.60;;;;;;;20.50;59.92;98737.75;2072668;28;20617;-46
2022/12/05 00:35:20;;;;;;;13.70;10.45;;;;;;;20.52;59.79;98735.69;2070158;28;20446;-45
2022/12/05 00:36:22;;;;;;;;;;;;;;;20.36;60.10;98734.28;2071211;28;20049;-46
2022/12/05 00:37:23;;;;;;;14.18;10.55;;;;;;;20.42;60.00;98730.75;2070644;28;20396;-45
2022/12/05 00:38:24;;;;;;;12.70;10.27;;;;;;;20.45;59.63;98727.63;2068844;28;20054;-46
2022/12/05 00:39:25;;;;;;;14.23;10.38;;;;;;;20.47;59.99;98722.84;2066724;28;20045;-48
2022/12/05 00:40:27;;;;;;;12.13;9.60;;;;;;;20.50;59.71;98721.59;2066779;28;20045;-46
2022/12/05 00:41:28;;;;;;;12.77;9.10;;;;;;;20.54;59.73;98717.47;2068267;28;20057;-47
2022/12/05 00:42:31;;;;;;;12.00;9.23;;;;;;;20.60;59.64;98721.19;2068694;28;20049;-46
2022/12/05 00:43:33;;;;;;;12.05;9.15;;;;;;;20.64;59.47;98717.81;2067244;28;20046;-49
2022/12/05 00:44:35;;;;;;;12.77;9.00;;;;;;;20.67;59.48;98717.41;2069423;28;20053;-48
2022/12/05 00:45:36;;;;;;;15.32;10.35;;;;;;;20.68;59.65;98710.97;2068200;28;20053;-45
2022/12/05 00:46:38;;;;;;;9.63;7.70;;;;;;;20.72;59.44;98717.56;2068988;28;20049;-50
2022/12/05 00:47:38;;;;;;;10.98;9.27;;;;;;;20.76;59.11;98712.59;2067948;28;20045;-46
2022/12/05 00:48:40;;;;;;;;;;;;;;;20.67;59.54;98713.88;2065213;28;20084;-45
2022/12/05 00:49:41;;;;;;;13.95;10.13;;;;;;;20.73;59.22;98711.16;2067966;28;19932;-46
2022/12/05 00:50:42;;;;;;;;;;;;;;;20.67;59.86;98708.47;2067445;28;20037;-48
2022/12/05 00:51:43;;;;;;;13.05;9.27;;;;;;;20.73;59.65;98713.84;2067447;28;19932;-47
2022/12/05 00:52:45;;;;;;;11.75;8.85;;;;;;;20.79;59.42;98711.34;2066389;28;20045;-48
2022/12/05 00:53:46;;;;;;;13.07;9.57;;;;;;;20.83;59.18;98710.69;2066289;28;20521;-45
2022/12/05 00:54:48;;;;;;;11.55;8.95;;;;;;;20.89;59.42;98714.38;2066196;28;20294;-48
2022/12/05 00:55:49;;;;;;;11.43;9.23;;;;;;;20.91;59.32;98715.00;2066288;28;20052;-50
2022/12/05 00:56:55;;;;;;;11.98;9.57;;;;;;;20.92;59.19;98716.63;2068152;28;20050;-49
2022/12/05 00:57:57;;;;;;;10.93;8.40;;;;;;;20.93;59.27;98715.63;2067036;28;20418;-49
2022/12/05 00:59:00;;;;;;;14.20;9.13;;;;;;;20.94;59.29;98725.34;2067171;28;20061;-47
2022/12/05 01:00:01;;;;;;;15.27;9.52;;;;;;;20.96;59.07;98726.78;2069116;28;20050;-49
2022/12/05 01:01:06;;;;;;;12.23;8.73;;;;;;;20.96;59.47;98732.19;2066869;28;20056;-49
2022/12/05 01:02:08;;;;;;;11.43;8.75;;;;;;;20.97;59.37;98728.44;2066478;28;20046;-45
2022/12/05 01:03:09;;;;;;;13.63;9.77;;;;;;;21.00;59.16;98726.34;2067118;28;20057;-50
2022/12/05 01:04:13;;;;;;;14.02;10.20;;;;;;;21.00;59.44;98724.47;2068699;28;20053;-50
2022/12/05 01:05:13;;;;;;;11.63;8.85;;;;;;;21.03;59.07;98725.91;2065615;28;20060;-50
2022/12/05 01:06:16;;;;;;;12.15;8.73;;;;;;;21.04;59.13;98725.72;2067755;28;20056;-50
2022/12/05 01:07:16;;;;;;;12.30;9.50;;;;;;;21.06;59.15;98736.25;2067749;28;20068;-49
2022/12/05 01:08:18;;;;;;;12.05;8.82;;;;;;;21.05;58.99;98724.66;2069411;28;20060;-48
2022/12/05 01:09:21;;;;;;;11.38;8.98;;;;;;;21.09;59.12;98727.72;2066210;28;20053;-47
2022/12/05 01:10:22;;;;;;;11.48;8.40;;;;;;;21.09;59.07;98725.88;2065857;28;20050;-47
2022/12/05 01:11:25;;;;;;;10.48;8.88;;;;;;;21.09;58.96;98725.88;2068234;28;20129;-51
2022/12/05 01:12:27;;;;;;;9.85;8.25;;;;;;;21.07;59.05;98727.97;2066087;28;20421;-47
2022/12/05 01:13:31;;;;;;;9.82;7.90;;;;;;;21.12;59.08;98735.41;2066896;28;20057;-49
2022/12/05 01:14:33;;;;;;;12.80;9.48;;;;;;;21.11;59.17;98731.88;2071414;28;20052;-47
2022/12/05 01:15:35;;;;;;;11.77;8.23;;;;;;;21.14;58.94;98734.13;2066269;28;24305;-49
2022/12/05 01:16:39;;;;;;;9.35;7.43;;;;;;;21.15;59.03;98734.97;2067545;28;20709;-48
2022/12/05 01:17:40;;;;;;;14.93;9.55;;;;;;;21.14;58.86;98734.13;2067287;28;20446;-49
2022/12/05 01:18:41;;;;;;;12.77;9.25;;;;;;;21.16;58.89;98731.22;2064920;28;20051;-45
2022/12/05 01:19:42;;;;;;;12.43;9.80;;;;;;;21.16;59.16;98729.34;2068892;28;20077;-50
2022/12/05 01:20:45;;;;;;;10.93;8.15;;;;;;;21.16;59.01;98734.75;2058586;28;20479;-53
2022/12/05 01:21:46;;;;;;;11.15;8.73;;;;;;;21.18;59.06;98727.28;2068962;28;20072;-48
2022/12/05 01:22:48;;;;;;;10.23;7.65;;;;;;;21.17;58.70;98733.72;2068170;28;20052;-51
2022/12/05 01:23:49;;;;;;;12.55;8.57;;;;;;;21.17;58.92;98733.72;2067497;28;20058;-48
2022/12/05 01:24:51;;;;;;;12.52;8.88;;;;;;;21.18;59.01;98734.53;2066508;28;20057;-46
2022/12/05 01:25:52;;;;;;;10.77;8.35;;;;;;;21.20;59.16;98738.66;2066721;28;20056;-48
2022/12/05 01:26:54;;;;;;;10.77;8.68;;;;;;;21.22;58.82;98729.53;2066138;28;20081;-49
2022/12/05 01:27:55;;;;;;;10.82;8.43;;;;;;;21.20;58.83;98738.66;2067810;28;20084;-48
2022/12/05 01:28:58;;;;;;;13.45;7.07;;;;;;;21.22;58.64;98735.75;2067065;28;21709;-48
2022/12/05 01:29:59;;;;;;;12.25;8.25;;;;;;;21.20;58.75;98732.44;2068013;28;21444;-47
2022/12/05 01:31:06;;;;;;;9.77;7.25;;;;;;;21.22;58.79;98733.03;2068113;28;20121;-48
2022/12/05 01:32:07;;;;;;;9.27;7.47;;;;;;;21.20;58.82;98732.44;2069173;28;20054;-47
2022/12/05 01:33:10;;;;;;;10.52;7.50;;;;;;;21.22;58.92;98729.53;2068714;28;20598;-49
2022/12/05 01:34:13;;;;;;;12.40;8.18;;;;;;;21.23;58.96;98731.16;2068538;28;20049;-50
2022/12/05 01:35:15;;;;;;;9.82;8.32;;;;;;;21.22;58.85;98732.22;2064628;28;20079;-48
2022/12/05 01:36:16;;;;;;;11.52;8.65;;;;;;;21.22;58.83;98733.03;2067059;28;20050;-48
2022/12/05 01:37:18;;;;;;;10.85;8.63;;;;;;;21.22;58.72;98735.75;2069561;28;20045;-45
2022/12/05 01:38:19;;;;;;;11.30;8.93;;;;;;;21.22;58.73;98735.75;2065015;28;20041;-44
2022/12/05 01:39:21;;;;;;;9.00;7.22;;;;;;;21.22;59.02;98729.53;2069898;28;20140;-50
2022/12/05 01:40:22;;;;;;;9.27;7.68;;;;;;;21.21;59.09;98734.09;2066947;28;20049;-50
2022/12/05 01:41:26;;;;;;;11.90;8.60;;;;;;;21.18;58.81;98731.84;2068975;28;20054;-51
2022/12/05 01:42:26;;;;;;;12.32;8.68;;;;;;;21.20;58.93;98722.50;2066664;28;20557;-47
2022/12/05 01:43:28;;;;;;;9.15;7.43;;;;;;;21.22;58.94;98724.13;2065493;28;20051;-49
2022/12/05 01:45:07;;;;;;;11.18;8.38;;;;;;;21.08;59.13;98723.41;2068512;28;20662;-47
2022/12/05 01:46:08;;;;;;;9.38;7.57;;;;;;;21.11;59.21;98726.47;2036664;28;20047;-48
2022/12/05 01:47:09;;;;;;;;;;;;;;;21.00;59.56;98721.78;2038820;28;20063;-46
2022/12/05 01:48:17;;;;;;;10.73;7.75;;;;;;;21.03;59.38;98732.13;2037846;28;19930;-45
2022/12/05 01:49:23;;;;;;;11.00;8.27;;;;;;;21.12;59.40;98738.94;2040254;28;20086;-45
2022/12/05 01:50:23;;;;;;;8.85;7.55;;;;;;;21.12;58.95;98733.53;2037583;28;20061;-46
2022/12/05 01:51:25;;;;;;;10.10;7.60;;;;;;;21.12;59.22;98738.94;2037479;28;20047;-47
2022/12/05 01:52:29;;;;;;;11.23;8.40;;;;;;;21.15;58.96;98738.50;2062770;28;20053;-48
2022/12/05 01:53:31;;;;;;;11.15;8.25;;;;;;;21.12;58.95;98736.22;2068342;28;20678;-46
2022/12/05 01:54:35;;;;;;;11.18;8.40;;;;;;;21.14;58.85;98733.31;2065315;28;20064;-47
2022/12/05 01:55:38;;;;;;;12.65;8.65;;;;;;;21.11;59.22;98731.88;2067245;28;20050;-47
2022/12/05 01:56:41;;;;;;;8.73;7.18;;;;;;;21.12;58.86;98727.31;2068078;28;20050;-46
2022/12/05 01:57:45;;;;;;;11.60;7.70;;;;;;;21.07;59.17;98730.66;2067987;28;20609;-48
2022/12/05 01:58:47;;;;;;;10.18;7.65;;;;;;;21.08;59.16;98732.31;2067016;28;20053;-47
2022/12/05 01:59:55;;;;;;;10.38;7.88;;;;;;;21.09;59.17;98735.81;2067089;28;20462;-46
2022/12/05 02:00:59;;;;;;;10.00;7.60;;;;;;;21.07;59.09;98725.28;2067226;28;20057;-45
2022/12/05 02:02:00;;;;;;;10.77;7.70;;;;;;;21.07;58.82;98730.66;2067291;28;20050;-46
2022/12/05 02:03:06;;;;;;;11.35;8.15;;;;;;;21.05;59.17;98727.34;2066178;28;20133;-46
2022/12/05 02:04:08;;;;;;;10.00;7.78;;;;;;;21.06;59.20;98731.72;2069415;28;20052;-47
2022/12/05 02:05:17;;;;;;;8.95;7.43;;;;;;;21.06;59.04;98722.78;2068196;28;20139;-47
2022/12/05 02:06:18;;;;;;;10.00;7.95;;;;;;;21.05;59.03;98727.34;2069318;28;20046;-47
2022/12/05 02:07:20;;;;;;;10.25;7.65;;;;;;;21.04;59.16;98717.63;2065486;28;20103;-47
2022/12/05 02:08:22;;;;;;;11.55;7.97;;;;;;;21.04;59.00;98723.00;2069239;28;20076;-48
2022/12/05 02:09:23;;;;;;;10.45;7.60;;;;;;;21.04;59.13;98728.41;2068962;28;20045;-46
2022/12/05 02:10:26;;;;;;;10.02;7.88;;;;;;;21.03;59.21;98729.44;2068212;28;20117;-46
2022/12/05 02:11:29;;;;;;;11.65;8.50;;;;;;;21.04;59.12;98722.19;2069131;28;20084;-45
2022/12/05 02:12:31;;;;;;;9.73;7.28;;;;;;;20.98;59.10;98722.00;2068641;28;20050;-48
2022/12/05 02:13:45;;;;;;;11.07;8.10;;;;;;;21.00;58.88;98727.16;2068906;28;20620;-47
2022/12/05 02:14:59;;;;;;;8.40;7.45;;;;;;;21.00;59.03;98726.34;2068727;28;20155;-46
2022/12/05 02:16:06;;;;;;;12.82;7.93;;;;;;;20.96;59.28;98720.56;2067840;28;20053;-46
2022/12/05 02:17:17;;;;;;;10.20;7.07;;;;;;;20.97;59.39;98722.22;2066337;28;20057;-48
2022/12/05 02:18:29;;;;;;;12.57;7.80;;;;;;;20.94;59.43;98714.56;2061448;28;20099;-48
2022/12/05 02:19:50;;;;;;;11.27;7.93;;;;;;;20.92;59.34;98708.56;2067113;28;20089;-46
2022/12/05 02:21:05;;;;;;;9.93;7.63;;;;;;;20.90;59.57;98705.25;2068041;28;20053;-46
2022/12/05 02:22:30;;;;;;;9.07;7.00;;;;;;;20.85;59.62;98714.00;2068970;28;20081;-47
2022/12/05 02:24:08;;;;;;;10.35;7.47;;;;;;;20.86;59.56;98714.81;2069205;28;20053;-48
2022/12/05 02:25:35;;;;;;;10.70;7.80;;;;;;;20.80;59.59;98704.91;2067705;28;20061;-45
2022/12/05 02:26:55;;;;;;;10.18;6.97;;;;;;;20.79;59.42;98705.94;2067796;28;20560;-47
2022/12/05 02:28:16;;;;;;;10.02;7.47;;;;;;;20.80;59.50;98704.91;2067620;28;20434;-46
2022/12/05 02:29:51;;;;;;;11.27;7.82;;;;;;;20.80;59.81;98713.00;2068252;28;20064;-47
2022/12/05 02:30:56;;;;;;;9.98;7.68;;;;;;;20.77;59.78;98706.16;2067877;28;20038;-46
2022/12/05 02:32:06;;;;;;;8.73;7.00;;;;;;;20.81;59.35;98701.16;2072228;28;20144;-46
2022/12/05 02:33:17;;;;;;;11.25;7.95;;;;;;;20.79;59.63;98709.47;2069978;28;20122;-46
2022/12/05 02:34:25;;;;;;;8.98;7.22;;;;;;;20.76;59.58;98701.81;2070136;28;20053;-46
2022/12/05 02:35:40;;;;;;;10.65;7.38;;;;;;;20.77;59.63;98699.94;2069804;28;20052;-47
2022/12/05 02:36:47;;;;;;;10.65;7.85;;;;;;;20.80;59.68;98716.50;2070891;28;20045;-47
2022/12/05 02:37:54;;;;;;;9.90;6.75;;;;;;;20.80;59.67;98715.69;2069062;28;20071;-46
2022/12/05 02:39:01;;;;;;;11.00;7.47;;;;;;;20.79;59.61;98714.03;2069425;28;20413;-46
2022/12/05 02:40:10;;;;;;;8.40;6.22;;;;;;;20.78;59.61;98720.44;2067652;28;20163;-48
2022/12/05 02:41:18;;;;;;;10.48;7.35;;;;;;;20.77;59.48;98716.13;2069893;28;20053;-48
2022/12/05 02:42:28;;;;;;;9.10;7.22;;;;;;;20.76;59.53;98712.59;2069074;28;20413;-46
2022/12/05 02:43:33;;;;;;;10.00;7.40;;;;;;;20.77;59.42;98716.94;2071860;28;20057;-45
2022/12/05 02:44:41;;;;;;;10.45;7.25;;;;;;;20.77;59.48;98722.31;2069020;28;20476;-46
2022/12/05 02:45:47;;;;;;;9.63;6.95;;;;;;;20.74;59.32;98720.88;2071500;28;20046;-47
2022/12/05 02:46:52;;;;;;;9.90;6.97;;;;;;;20.74;59.46;98728.16;2071574;28;20057;-48
2022/12/05 02:47:54;;;;;;;10.57;6.93;;;;;;;20.71;59.64;98724.03;2072239;28;20052;-48
2022/12/05 02:48:59;;;;;;;9.27;8.13;;;;;;;20.71;59.20;98726.72;2072227;28;20052;-49
2022/12/05 02:50:00;;;;;;;10.10;8.02;;;;;;;20.71;59.63;98739.38;2072924;28;20053;-47
2022/12/05 02:51:05;;;;;;;8.00;7.18;;;;;;;20.72;59.49;98739.13;2070808;28;20053;-48
2022/12/05 02:52:10;;;;;;;10.68;7.75;;;;;;;20.70;59.49;98743.94;2072761;28;20053;-47
2022/12/05 02:53:15;;;;;;;9.75;7.35;;;;;;;20.70;59.58;98748.50;2072670;28;20087;-46
2022/12/05 02:54:22;;;;;;;8.93;7.03;;;;;;;20.70;59.48;98748.50;2071902;28;20532;-48
2022/12/05 02:55:28;;;;;;;9.07;6.32;;;;;;;20.68;59.58;98748.72;2072997;28;20133;-46
2022/12/05 02:56:31;;;;;;;8.40;6.47;;;;;;;20.71;59.55;98750.16;2069754;28;20046;-49
2022/12/05 02:57:36;;;;;;;8.45;6.97;;;;;;;20.75;59.41;98754.91;2071338;28;20108;-47
2022/12/05 02:58:43;;;;;;;8.88;6.50;;;;;;;20.77;59.01;98764.63;2071571;28;20058;-46
2022/12/05 02:59:45;;;;;;;9.50;7.10;;;;;;;20.79;59.14;98766.06;2072799;28;20042;-48
2022/12/05 03:00:49;;;;;;;9.23;7.13;;;;;;;20.85;59.02;98767.91;2070718;28;20042;-47
2022/12/05 03:01:52;;;;;;;9.82;7.10;;;;;;;20.86;58.96;98764.16;2074065;28;20053;-45
2022/12/05 03:02:58;;;;;;;11.07;7.95;;;;;;;20.89;58.80;98768.28;2070005;28;20057;-48
2022/12/05 03:04:02;;;;;;;10.82;7.75;;;;;;;20.89;58.93;98769.13;2069850;28;20062;-49
2022/12/05 03:05:16;;;;;;;9.68;7.43;;;;;;;20.88;59.08;98759.38;2071219;28;20052;-48
2022/12/05 03:06:22;;;;;;;10.43;7.50;;;;;;;20.88;59.04;98755.88;2069316;28;20054;-46
2022/12/05 03:07:25;;;;;;;9.15;6.53;;;;;;;20.89;59.04;98754.81;2067908;28;20544;-46
2022/12/05 03:08:32;;;;;;;8.07;6.68;;;;;;;20.90;59.10;98746.53;2068661;28;20141;-48
2022/12/05 03:09:36;;;;;;;11.02;7.38;;;;;;;20.91;58.71;98750.03;2068797;28;20049;-47
2022/12/05 03:10:40;;;;;;;9.68;6.63;;;;;;;20.91;58.94;98750.88;2070114;28;20100;-46
2022/12/05 03:11:44;;;;;;;9.38;7.30;;;;;;;20.90;58.97;98754.63;2070362;28;20681;-46
2022/12/05 03:12:53;;;;;;;7.57;5.95;;;;;;;20.89;58.92;98746.72;2066757;28;20054;-48
2022/12/05 03:13:57;;;;;;;9.70;6.90;;;;;;;20.88;59.02;98751.31;2069024;28;20053;-49
2022/12/05 03:15:04;;;;;;;9.15;7.00;;;;;;;20.91;59.01;98750.88;2069960;28;20052;-46
2022/12/05 03:16:10;;;;;;;6.88;6.13;;;;;;;20.90;59.01;98753.78;2068993;28;20057;-49
2022/12/05 03:17:19;;;;;;;8.73;6.55;;;;;;;20.89;58.77;98752.94;2070605;28;20064;-46
2022/12/05 03:18:23;;;;;;;8.20;6.78;;;;;;;20.90;58.78;98745.72;2071408;28;20084;-46
2022/12/05 03:19:31;;;;;;;9.63;7.00;;;;;;;20.90;58.99;98741.13;2069277;28;20111;-46
2022/12/05 03:20:36;;;;;;;6.90;5.97;;;;;;;20.91;58.98;98739.25;2072151;28;20054;-46
2022/12/05 03:21:45;;;;;;;11.40;6.78;;;;;;;20.90;59.13;98740.31;2070837;28;20049;-46
2022/12/05 03:22:53;;;;;;;9.73;6.60;;;;;;;20.88;58.80;98734.31;2071196;28;20076;-47
2022/12/05 03:23:59;;;;;;;9.05;6.22;;;;;;;20.91;59.19;98739.25;2070099;28;20092;-45
2022/12/05 03:25:02;;;;;;;9.05;6.85;;;;;;;20.88;58.94;98742.38;2070534;28;20064;-46
2022/12/05 03:26:13;;;;;;;8.38;6.35;;;;;;;20.88;59.31;98745.91;2070360;28;20050;-46
2022/12/05 03:27:22;;;;;;;9.57;5.93;;;;;;;20.86;59.04;98747.16;2070839;28;20049;-46
2022/12/05 03:28:29;;;;;;;7.95;6.60;;;;;;;20.87;58.91;98738.06;2069208;28;20050;-52
2022/12/05 03:29:36;;;;;;;9.05;6.65;;;;;;;20.85;59.24;98734.75;2071240;28;20050;-47
2022/12/05 03:30:39;;;;;;;8.88;6.53;;;;;;;20.87;58.95;98732.66;2071135;28;20056;-47
2022/12/05 03:31:47;;;;;;;7.75;6.57;;;;;;;20.88;59.27;98739.69;2068379;28;20148;-46
2022/12/05 03:32:57;;;;;;;8.80;6.57;;;;;;;20.86;59.11;98747.97;2069424;28;20062;-46
2022/12/05 03:34:01;;;;;;;9.23;6.93;;;;;;;20.87;59.13;98746.97;2069395;28;20058;-46
2022/12/05 03:35:08;;;;;;;7.40;6.05;;;;;;;20.88;58.96;98750.47;2070630;28;20315;-45
2022/12/05 03:36:14;;;;;;;8.40;6.43;;;;;;;20.89;59.27;98744.84;2069427;28;20049;-49
2022/12/05 03:37:22;;;;;;;7.72;6.28;;;;;;;20.89;58.97;98746.72;2070592;28;20133;-47
2022/12/05 03:38:27;;;;;;;8.10;6.38;;;;;;;20.95;58.92;98743.19;2066334;28;20050;-48
2022/12/05 03:39:34;;;;;;;8.10;6.47;;;;;;;20.96;58.95;98744.84;2070696;28;20171;-47
2022/12/05 03:40:41;;;;;;;7.40;6.53;;;;;;;20.98;58.92;98750.84;2070015;28;20053;-46
2022/12/05 03:41:49;;;;;;;8.05;6.95;;;;;;;20.95;58.94;98749.41;2070654;28;20048;-46
2022/12/05 03:42:56;;;;;;;8.38;6.93;;;;;;;20.97;58.72;98754.56;2067541;28;20402;-45
2022/12/05 03:44:05;;;;;;;8.80;6.72;;;;;;;20.98;58.86;98751.66;2073784;28;20517;-47
2022/12/05 03:45:11;;;;;;;7.47;5.60;;;;;;;20.96;58.97;98758.31;2069244;28;20758;-48
2022/12/05 03:46:18;;;;;;;8.07;6.10;;;;;;;20.98;58.86;98761.63;2070441;28;20076;-47
2022/12/05 03:47:28;;;;;;;9.27;6.28;;;;;;;20.98;58.89;98756.25;2068866;28;20061;-48
2022/12/05 03:48:36;;;;;;;9.23;6.28;;;;;;;21.02;59.01;98762.03;2070435;28;20732;-48
2022/12/05 03:49:43;;;;;;;9.52;7.00;;;;;;;20.98;58.87;98765.16;2069482;28;20064;-48
2022/12/05 03:50:47;;;;;;;7.53;6.00;;;;;;;21.01;58.97;98774.69;2070175;28;20050;-47
2022/12/05 03:51:54;;;;;;;7.15;6.05;;;;;;;21.02;58.86;98770.09;2070745;28;20577;-46
2022/12/05 03:53:01;;;;;;;8.32;5.85;;;;;;;21.01;58.65;98777.38;2069703;28;20068;-49
2022/12/05 03:54:08;;;;;;;8.52;6.63;;;;;;;21.00;58.85;98775.69;2070027;28;20057;-48
2022/12/05 03:55:12;;;;;;;7.53;6.22;;;;;;;21.01;58.61;98771.16;2070287;28;20061;-46
2022/12/05 03:56:17;;;;;;;8.73;5.63;;;;;;;21.00;58.67;98770.31;2068604;28;20057;-48
2022/12/05 03:57:23;;;;;;;8.07;6.32;;;;;;;21.01;58.69;98765.78;2069009;28;20077;-47
2022/12/05 03:58:29;;;;;;;7.05;5.72;;;;;;;20.99;58.90;98768.66;2069525;28;20141;-45
2022/12/05 03:59:37;;;;;;;9.20;7.15;;;;;;;20.99;58.63;98768.66;2071209;28;20107;-46
2022/12/05 04:00:42;;;;;;;8.65;6.57;;;;;;;20.97;58.81;98774.25;2072037;28;20064;-46
2022/12/05 04:01:48;;;;;;;8.20;6.00;;;;;;;20.96;58.98;98775.31;2070188;28;20583;-49
2022/12/05 04:02:54;;;;;;;8.82;6.50;;;;;;;20.97;59.00;98778.84;2071212;28;20057;-49
2022/12/05 04:04:01;;;;;;;8.57;6.75;;;;;;;20.97;58.80;98781.53;2069377;28;20049;-46
2022/12/05 04:05:07;;;;;;;7.88;5.85;;;;;;;20.96;59.08;98787.97;2071022;28;20057;-48
2022/12/05 04:06:16;;;;;;;9.57;6.75;;;;;;;20.98;59.17;98785.91;2072051;28;20058;-48
2022/12/05 04:07:18;;;;;;;8.75;6.53;;;;;;;20.94;59.07;98785.47;2069277;28;20069;-47
2022/12/05 04:08:26;;;;;;;8.30;6.53;;;;;;;20.94;58.80;98788.19;2073007;28;20764;-47
2022/12/05 04:09:32;;;;;;;7.82;6.78;;;;;;;20.94;59.26;98795.44;2069686;28;20060;-47
2022/12/05 04:10:47;;;;;;;8.48;5.95;;;;;;;20.96;58.91;98796.88;2070323;28;20053;-49
2022/12/05 04:11:53;;;;;;;7.32;6.13;;;;;;;20.92;58.93;98789.44;2070029;28;20141;-48
2022/12/05 04:12:58;;;;;;;6.45;5.20;;;;;;;20.91;58.83;98785.91;2069080;28;20045;-51
2022/12/05 04:14:04;;;;;;;8.32;5.85;;;;;;;20.91;59.15;98777.00;2070420;28;20054;-48
2022/12/05 04:15:10;;;;;;;7.93;5.82;;;;;;;20.89;58.97;98779.91;2072260;28;20453;-47
2022/12/05 04:17:51;;;;;;;8.05;6.32;;;;;;;20.85;59.13;98783.25;2069914;28;20066;-46
2022/12/05 04:19:02;;;;;;;8.20;6.35;;;;;;;20.84;59.47;98787.84;2073337;28;20413;-47
2022/12/05 04:21:39;;;;;;;7.20;5.95;;;;;;;20.79;59.24;98779.56;2072048;28;20217;-49
2022/12/05 04:22:42;;;;;;;7.40;6.40;;;;;;;20.81;59.13;98776.63;2072366;28;20090;-46
2022/12/05 04:25:31;;;;;;;9.20;6.32;;;;;;;20.84;59.26;98786.97;2067359;28;20053;-45
2022/12/05 04:26:32;;;;;;;7.25;6.05;;;;;;;20.81;59.20;98792.81;2062704;28;20044;-47
2022/12/05 04:27:41;;;;;;;8.73;5.45;;;;;;;20.79;59.29;98790.34;2071000;28;20056;-46
2022/12/05 04:28:51;;;;;;;7.50;6.05;;;;;;;20.79;58.97;98789.50;2067076;28;20217;-45
2022/12/05 04:30:00;;;;;;;6.70;5.60;;;;;;;20.81;59.17;98793.66;2070679;28;20061;-45
2022/12/05 04:31:06;;;;;;;6.18;4.75;;;;;;;20.80;59.07;98796.56;2070996;28;20053;-49
2022/12/05 04:32:12;;;;;;;6.18;5.03;;;;;;;20.78;59.37;98787.84;2069909;28;20053;-49
2022/12/05 04:33:20;;;;;;;7.82;5.55;;;;;;;20.80;59.35;98801.94;2068863;28;20051;-46
2022/12/05 04:34:27;;;;;;;6.78;5.13;;;;;;;20.81;59.31;98790.09;2070347;28;20049;-47
2022/12/05 04:35:34;;;;;;;8.48;5.82;;;;;;;20.81;59.05;98799.03;2070241;28;20084;-46
2022/12/05 04:36:39;;;;;;;6.72;5.25;;;;;;;20.78;59.14;98796.75;2068960;28;20046;-46
2022/12/05 04:37:45;;;;;;;6.28;4.75;;;;;;;20.78;59.37;98804.00;2069640;28;20124;-48
2022/12/05 04:38:50;;;;;;;7.18;5.93;;;;;;;20.77;59.30;98796.97;2067916;28;20640;-47
2022/12/05 04:39:58;;;;;;;7.13;6.05;;;;;;;20.74;59.15;98807.13;2070824;28;20068;-48
2022/12/05 04:41:02;;;;;;;8.18;5.38;;;;;;;20.73;59.18;98810.88;2070307;28;20053;-46
2022/12/05 04:42:07;;;;;;;8.13;5.78;;;;;;;20.72;59.19;98808.38;2071399;28;20049;-47
2022/12/05 04:43:09;;;;;;;8.07;5.75;;;;;;;20.73;59.19;98813.59;2069301;28;20049;-46
2022/12/05 04:44:16;;;;;;;9.25;6.72;;;;;;;20.70;59.49;98808.63;2071170;28;20057;-46
2022/12/05 04:45:20;;;;;;;8.55;5.63;;;;;;;20.72;59.35;98803.81;2067101;28;20060;-46
2022/12/05 04:46:23;;;;;;;7.80;5.43;;;;;;;20.74;59.64;98807.13;2069312;28;20128;-46
2022/12/05 04:47:29;;;;;;;7.63;5.70;;;;;;;20.71;59.35;98804.06;2069194;28;20046;-48
2022/12/05 04:48:33;;;;;;;7.47;5.85;;;;;;;20.70;59.40;98805.94;2070469;28;20147;-47
2022/12/05 04:49:37;;;;;;;5.60;5.03;;;;;;;20.69;59.20;98806.94;2070142;28;20042;-48
2022/12/05 04:50:40;;;;;;;7.18;5.68;;;;;;;20.68;59.37;98805.31;2071199;28;20780;-45
2022/12/05 04:51:44;;;;;;;8.43;5.88;;;;;;;20.68;59.06;98810.69;2070248;28;20048;-49
2022/12/05 04:52:50;;;;;;;6.72;5.63;;;;;;;20.69;59.35;98820.44;2070296;28;20076;-46
2022/12/05 04:53:55;;;;;;;6.55;5.30;;;;;;;20.67;59.14;98821.69;2070466;28;20489;-48
2022/12/05 04:55:02;;;;;;;8.50;5.63;;;;;;;20.66;59.12;98834.31;2072598;28;20049;-47
2022/12/05 04:56:05;;;;;;;6.28;5.07;;;;;;;20.64;59.24;98833.69;2069392;28;20614;-46
2022/12/05 04:57:11;;;;;;;6.65;4.65;;;;;;;20.65;59.04;98834.56;2067579;28;20050;-46
2022/12/05 04:58:16;;;;;;;6.40;5.40;;;;;;;20.63;59.47;98848.22;2068205;28;20525;-47
2022/12/05 04:59:17;;;;;;;5.60;4.43;;;;;;;20.62;59.28;98843.06;2068353;28;20053;-46
2022/12/05 05:00:19;;;;;;;7.93;5.40;;;;;;;20.64;59.04;98838.28;2070934;28;20061;-47
2022/12/05 05:01:26;;;;;;;6.63;5.38;;;;;;;20.64;59.38;98836.41;2069056;28;20548;-46
2022/12/05 05:02:33;;;;;;;7.90;5.82;;;;;;;20.62;59.59;98833.09;2067360;28;20134;-47
2022/12/05 05:03:41;;;;;;;7.80;5.40;;;;;;;20.61;59.07;98830.63;2071064;28;20049;-50
2022/12/05 05:04:47;;;;;;;7.00;5.18;;;;;;;20.59;59.65;98836.22;2068195;28;20038;-46
2022/12/05 05:05:52;;;;;;;8.77;5.95;;;;;;;20.59;59.18;98841.63;2066983;28;20643;-46
2022/12/05 05:06:53;;;;;;;8.95;5.75;;;;;;;20.60;59.30;98845.13;2069029;28;20053;-46
2022/12/05 05:07:54;;;;;;;7.00;5.43;;;;;;;20.61;59.59;98844.91;2070713;28;20693;-50
2022/12/05 05:08:58;;;;;;;7.00;5.32;;;;;;;20.63;59.66;98859.00;2068135;28;20050;-46
2022/12/05 05:09:58;;;;;;;6.50;5.38;;;;;;;20.62;59.35;98859.25;2069207;28;20080;-48